sensor_id;sensor_type;location;lat;lon;timestamp;P1;durP1;ratioP1;P2;durP2;ratioP2
7917;SDS011;4004;42.624;23.386;2023-08-20T00:02:30;8.63;;;4.67;;
7917;SDS011;4004;42.624;23.386;2023-08-20T00:04:59;8.50;;;5.30;;
7917;SDS011;4004;42.624;23.386;2023-08-20T00:07:29;8.43;;;6.10;;
7917;SDS011;4004;42.624;23.386;2023-08-20T00:09:56;7.87;;;5.70;;
7917;SDS011;4004;42.624;23.386;2023-08-20T00:12:23;7.50;;;5.60;;
7917;SDS011;4004;42.624;23.386;2023-08-20T00:14:51;7.97;;;5.37;;
7917;SDS011;4004;42.624;23.386;2023-08-20T00:17:19;8.27;;;5.53;;
7917;SDS011;4004;42.624;23.386;2023-08-20T00:19:48;5.90;;;5.40;;
7917;SDS011;4004;42.624;23.386;2023-08-20T00:22:16;5.83;;;5.27;;
7917;SDS011;4004;42.624;23.386;2023-08-20T00:24:43;6.77;;;5.77;;
7917;SDS011;4004;42.624;23.386;2023-08-20T00:27:10;7.90;;;6.00;;
7917;SDS011;4004;42.624;23.386;2023-08-20T00:29:37;7.60;;;5.47;;
7917;SDS011;4004;42.624;23.386;2023-08-20T00:32:04;6.47;;;5.87;;
7917;SDS011;4004;42.624;23.386;2023-08-20T00:34:31;6.93;;;6.17;;
7917;SDS011;4004;42.624;23.386;2023-08-20T00:36:59;11.20;;;5.60;;
7917;SDS011;4004;42.624;23.386;2023-08-20T00:39:26;7.13;;;5.60;;
7917;SDS011;4004;42.624;23.386;2023-08-20T00:41:53;10.57;;;5.90;;
7917;SDS011;4004;42.624;23.386;2023-08-20T00:44:20;7.63;;;5.93;;
7917;SDS011;4004;42.624;23.386;2023-08-20T00:46:46;6.27;;;5.67;;
7917;SDS011;4004;42.624;23.386;2023-08-20T00:49:15;7.33;;;5.80;;
7917;SDS011;4004;42.624;23.386;2023-08-20T00:51:43;6.43;;;5.83;;
7917;SDS011;4004;42.624;23.386;2023-08-20T00:54:12;6.70;;;6.10;;
7917;SDS011;4004;42.624;23.386;2023-08-20T00:56:39;8.33;;;6.27;;
7917;SDS011;4004;42.624;23.386;2023-08-20T00:59:06;8.33;;;6.07;;
7917;SDS011;4004;42.624;23.386;2023-08-20T01:01:33;10.43;;;6.47;;
7917;SDS011;4004;42.624;23.386;2023-08-20T01:04:00;8.40;;;6.40;;
7917;SDS011;4004;42.624;23.386;2023-08-20T01:06:39;6.83;;;6.00;;
7917;SDS011;4004;42.624;23.386;2023-08-20T01:09:16;6.87;;;6.17;;
7917;SDS011;4004;42.624;23.386;2023-08-20T01:11:51;9.10;;;6.63;;
7917;SDS011;4004;42.624;23.386;2023-08-20T01:14:21;6.90;;;5.80;;
7917;SDS011;4004;42.624;23.386;2023-08-20T01:16:48;8.03;;;6.63;;
7917;SDS011;4004;42.624;23.386;2023-08-20T01:19:16;7.00;;;6.40;;
7917;SDS011;4004;42.624;23.386;2023-08-20T01:21:45;7.73;;;6.47;;
7917;SDS011;4004;42.624;23.386;2023-08-20T01:24:26;9.17;;;6.40;;
7917;SDS011;4004;42.624;23.386;2023-08-20T01:27:08;6.87;;;6.27;;
7917;SDS011;4004;42.624;23.386;2023-08-20T01:29:47;8.80;;;6.87;;
7917;SDS011;4004;42.624;23.386;2023-08-20T01:32:15;7.47;;;6.43;;
7917;SDS011;4004;42.624;23.386;2023-08-20T01:34:44;8.00;;;6.93;;
7917;SDS011;4004;42.624;23.386;2023-08-20T01:37:13;8.10;;;6.17;;
7917;SDS011;4004;42.624;23.386;2023-08-20T01:39:40;7.83;;;7.03;;
7917;SDS011;4004;42.624;23.386;2023-08-20T01:42:07;10.13;;;7.20;;
7917;SDS011;4004;42.624;23.386;2023-08-20T01:44:34;7.90;;;6.30;;
7917;SDS011;4004;42.624;23.386;2023-08-20T01:47:02;8.47;;;6.70;;
7917;SDS011;4004;42.624;23.386;2023-08-20T01:49:29;8.30;;;7.47;;
7917;SDS011;4004;42.624;23.386;2023-08-20T01:51:56;7.30;;;6.40;;
7917;SDS011;4004;42.624;23.386;2023-08-20T01:54:22;10.93;;;6.63;;
7917;SDS011;4004;42.624;23.386;2023-08-20T01:56:49;8.73;;;6.90;;
7917;SDS011;4004;42.624;23.386;2023-08-20T01:59:16;9.57;;;6.63;;
7917;SDS011;4004;42.624;23.386;2023-08-20T02:01:43;9.17;;;7.33;;
7917;SDS011;4004;42.624;23.386;2023-08-20T02:04:11;9.27;;;6.80;;
7917;SDS011;4004;42.624;23.386;2023-08-20T02:06:38;13.73;;;7.37;;
7917;SDS011;4004;42.624;23.386;2023-08-20T02:09:05;7.87;;;7.07;;
7917;SDS011;4004;42.624;23.386;2023-08-20T02:11:32;9.67;;;7.50;;
7917;SDS011;4004;42.624;23.386;2023-08-20T02:14:00;8.00;;;7.20;;
7917;SDS011;4004;42.624;23.386;2023-08-20T02:16:27;7.90;;;7.03;;
7917;SDS011;4004;42.624;23.386;2023-08-20T02:18:54;10.37;;;6.97;;
7917;SDS011;4004;42.624;23.386;2023-08-20T02:21:22;7.57;;;6.87;;
7917;SDS011;4004;42.624;23.386;2023-08-20T02:23:49;9.93;;;7.03;;
7917;SDS011;4004;42.624;23.386;2023-08-20T02:26:16;8.23;;;7.23;;
7917;SDS011;4004;42.624;23.386;2023-08-20T02:28:43;7.83;;;7.03;;
7917;SDS011;4004;42.624;23.386;2023-08-20T02:31:09;9.27;;;6.90;;
7917;SDS011;4004;42.624;23.386;2023-08-20T02:33:36;8.43;;;6.87;;
7917;SDS011;4004;42.624;23.386;2023-08-20T02:36:03;10.20;;;7.23;;
7917;SDS011;4004;42.624;23.386;2023-08-20T02:38:32;7.83;;;7.00;;
7917;SDS011;4004;42.624;23.386;2023-08-20T02:40:59;7.80;;;6.70;;
7917;SDS011;4004;42.624;23.386;2023-08-20T02:43:27;11.30;;;7.13;;
7917;SDS011;4004;42.624;23.386;2023-08-20T02:45:54;9.40;;;7.03;;
7917;SDS011;4004;42.624;23.386;2023-08-20T02:48:20;7.60;;;6.80;;
7917;SDS011;4004;42.624;23.386;2023-08-20T02:50:52;7.20;;;6.50;;
7917;SDS011;4004;42.624;23.386;2023-08-20T02:53:19;7.40;;;6.60;;
7917;SDS011;4004;42.624;23.386;2023-08-20T02:55:47;10.63;;;7.00;;
7917;SDS011;4004;42.624;23.386;2023-08-20T02:58:14;7.77;;;6.73;;
7917;SDS011;4004;42.624;23.386;2023-08-20T03:00:41;8.47;;;7.00;;
7917;SDS011;4004;42.624;23.386;2023-08-20T03:03:10;7.67;;;6.93;;
7917;SDS011;4004;42.624;23.386;2023-08-20T03:05:37;9.07;;;6.73;;
7917;SDS011;4004;42.624;23.386;2023-08-20T03:08:04;7.17;;;6.57;;
7917;SDS011;4004;42.624;23.386;2023-08-20T03:10:32;7.37;;;6.67;;
7917;SDS011;4004;42.624;23.386;2023-08-20T03:13:00;8.57;;;7.27;;
7917;SDS011;4004;42.624;23.386;2023-08-20T03:15:28;7.40;;;6.80;;
7917;SDS011;4004;42.624;23.386;2023-08-20T03:17:54;9.83;;;6.70;;
7917;SDS011;4004;42.624;23.386;2023-08-20T03:20:21;8.00;;;6.53;;
7917;SDS011;4004;42.624;23.386;2023-08-20T03:22:48;7.43;;;6.73;;
7917;SDS011;4004;42.624;23.386;2023-08-20T03:25:15;8.40;;;6.63;;
7917;SDS011;4004;42.624;23.386;2023-08-20T03:27:42;7.77;;;6.07;;
7917;SDS011;4004;42.624;23.386;2023-08-20T03:30:11;7.00;;;5.93;;
7917;SDS011;4004;42.624;23.386;2023-08-20T03:32:38;7.77;;;6.20;;
7917;SDS011;4004;42.624;23.386;2023-08-20T03:35:05;7.50;;;6.60;;
7917;SDS011;4004;42.624;23.386;2023-08-20T03:37:32;6.87;;;6.27;;
7917;SDS011;4004;42.624;23.386;2023-08-20T03:39:59;7.43;;;6.60;;
7917;SDS011;4004;42.624;23.386;2023-08-20T03:42:26;7.00;;;6.30;;
7917;SDS011;4004;42.624;23.386;2023-08-20T03:44:52;8.20;;;7.30;;
7917;SDS011;4004;42.624;23.386;2023-08-20T03:47:21;7.77;;;6.63;;
7917;SDS011;4004;42.624;23.386;2023-08-20T03:49:47;7.57;;;6.80;;
7917;SDS011;4004;42.624;23.386;2023-08-20T03:52:14;8.60;;;6.67;;
7917;SDS011;4004;42.624;23.386;2023-08-20T03:54:41;10.47;;;6.30;;
7917;SDS011;4004;42.624;23.386;2023-08-20T03:57:08;8.03;;;6.17;;
7917;SDS011;4004;42.624;23.386;2023-08-20T03:59:35;6.83;;;6.20;;
7917;SDS011;4004;42.624;23.386;2023-08-20T04:02:02;8.73;;;7.00;;
7917;SDS011;4004;42.624;23.386;2023-08-20T04:04:30;7.83;;;5.43;;
7917;SDS011;4004;42.624;23.386;2023-08-20T04:06:57;8.33;;;6.43;;
7917;SDS011;4004;42.624;23.386;2023-08-20T04:09:24;6.37;;;5.77;;
7917;SDS011;4004;42.624;23.386;2023-08-20T04:11:51;8.23;;;7.33;;
7917;SDS011;4004;42.624;23.386;2023-08-20T04:14:17;7.00;;;6.33;;
7917;SDS011;4004;42.624;23.386;2023-08-20T04:16:44;8.53;;;7.10;;
7917;SDS011;4004;42.624;23.386;2023-08-20T04:19:11;7.17;;;6.37;;
7917;SDS011;4004;42.624;23.386;2023-08-20T04:21:39;9.80;;;6.80;;
7917;SDS011;4004;42.624;23.386;2023-08-20T04:24:06;6.80;;;6.10;;
7917;SDS011;4004;42.624;23.386;2023-08-20T04:26:33;8.90;;;6.10;;
7917;SDS011;4004;42.624;23.386;2023-08-20T04:29:00;6.80;;;6.20;;
7917;SDS011;4004;42.624;23.386;2023-08-20T04:31:27;6.37;;;5.67;;
7917;SDS011;4004;42.624;23.386;2023-08-20T04:33:53;9.10;;;6.20;;
7917;SDS011;4004;42.624;23.386;2023-08-20T04:36:21;7.27;;;6.20;;
7917;SDS011;4004;42.624;23.386;2023-08-20T04:38:49;6.37;;;5.87;;
7917;SDS011;4004;42.624;23.386;2023-08-20T04:41:16;6.37;;;5.77;;
7917;SDS011;4004;42.624;23.386;2023-08-20T04:43:43;7.13;;;5.63;;
7917;SDS011;4004;42.624;23.386;2023-08-20T04:46:09;7.57;;;6.23;;
7917;SDS011;4004;42.624;23.386;2023-08-20T04:48:36;7.10;;;5.93;;
7917;SDS011;4004;42.624;23.386;2023-08-20T04:51:04;8.40;;;5.67;;
7917;SDS011;4004;42.624;23.386;2023-08-20T04:53:31;7.40;;;5.90;;
7917;SDS011;4004;42.624;23.386;2023-08-20T04:56:00;5.57;;;4.97;;
7917;SDS011;4004;42.624;23.386;2023-08-20T04:58:28;10.30;;;5.93;;
7917;SDS011;4004;42.624;23.386;2023-08-20T05:00:54;6.37;;;5.77;;
7917;SDS011;4004;42.624;23.386;2023-08-20T05:03:21;6.23;;;5.20;;
7917;SDS011;4004;42.624;23.386;2023-08-20T05:05:48;5.80;;;5.20;;
7917;SDS011;4004;42.624;23.386;2023-08-20T05:08:15;7.50;;;4.90;;
7917;SDS011;4004;42.624;23.386;2023-08-20T05:10:42;7.10;;;5.10;;
7917;SDS011;4004;42.624;23.386;2023-08-20T05:13:10;6.77;;;5.03;;
7917;SDS011;4004;42.624;23.386;2023-08-20T05:15:37;6.80;;;5.30;;
7917;SDS011;4004;42.624;23.386;2023-08-20T05:18:04;10.10;;;5.17;;
7917;SDS011;4004;42.624;23.386;2023-08-20T05:20:31;8.70;;;5.17;;
7917;SDS011;4004;42.624;23.386;2023-08-20T05:22:58;7.73;;;5.50;;
7917;SDS011;4004;42.624;23.386;2023-08-20T05:25:24;10.13;;;5.47;;
7917;SDS011;4004;42.624;23.386;2023-08-20T05:27:51;6.77;;;4.83;;
7917;SDS011;4004;42.624;23.386;2023-08-20T05:30:19;8.27;;;4.97;;
7917;SDS011;4004;42.624;23.386;2023-08-20T05:32:46;7.40;;;5.03;;
7917;SDS011;4004;42.624;23.386;2023-08-20T05:35:13;9.83;;;5.07;;
7917;SDS011;4004;42.624;23.386;2023-08-20T05:37:40;5.63;;;5.03;;
7917;SDS011;4004;42.624;23.386;2023-08-20T05:40:07;6.97;;;5.50;;
7917;SDS011;4004;42.624;23.386;2023-08-20T05:42:35;7.37;;;5.10;;
7917;SDS011;4004;42.624;23.386;2023-08-20T05:45:01;6.23;;;4.73;;
7917;SDS011;4004;42.624;23.386;2023-08-20T05:47:30;6.40;;;4.97;;
7917;SDS011;4004;42.624;23.386;2023-08-20T05:49:57;5.67;;;5.17;;
7917;SDS011;4004;42.624;23.386;2023-08-20T05:52:23;7.33;;;4.80;;
7917;SDS011;4004;42.624;23.386;2023-08-20T05:54:50;6.77;;;4.87;;
7917;SDS011;4004;42.624;23.386;2023-08-20T05:57:17;7.97;;;5.37;;
7917;SDS011;4004;42.624;23.386;2023-08-20T05:59:44;11.33;;;5.50;;
7917;SDS011;4004;42.624;23.386;2023-08-20T06:02:13;8.90;;;6.10;;
7917;SDS011;4004;42.624;23.386;2023-08-20T06:04:43;7.97;;;6.03;;
7917;SDS011;4004;42.624;23.386;2023-08-20T06:07:10;9.10;;;5.43;;
7917;SDS011;4004;42.624;23.386;2023-08-20T06:09:37;6.77;;;5.90;;
7917;SDS011;4004;42.624;23.386;2023-08-20T06:12:03;6.80;;;5.47;;
7917;SDS011;4004;42.624;23.386;2023-08-20T06:14:30;11.37;;;6.30;;
7917;SDS011;4004;42.624;23.386;2023-08-20T06:16:57;11.83;;;6.17;;
7917;SDS011;4004;42.624;23.386;2023-08-20T06:19:24;7.47;;;6.00;;
7917;SDS011;4004;42.624;23.386;2023-08-20T06:21:52;10.40;;;6.10;;
7917;SDS011;4004;42.624;23.386;2023-08-20T06:24:19;10.27;;;6.17;;
7917;SDS011;4004;42.624;23.386;2023-08-20T06:26:46;9.93;;;5.87;;
7917;SDS011;4004;42.624;23.386;2023-08-20T06:29:12;16.40;;;5.90;;
7917;SDS011;4004;42.624;23.386;2023-08-20T06:31:39;10.33;;;6.10;;
7917;SDS011;4004;42.624;23.386;2023-08-20T06:34:06;7.00;;;5.53;;
7917;SDS011;4004;42.624;23.386;2023-08-20T06:36:33;12.17;;;5.83;;
7917;SDS011;4004;42.624;23.386;2023-08-20T06:39:01;7.90;;;5.27;;
7917;SDS011;4004;42.624;23.386;2023-08-20T06:41:28;8.13;;;5.43;;
7917;SDS011;4004;42.624;23.386;2023-08-20T06:43:55;8.73;;;5.00;;
7917;SDS011;4004;42.624;23.386;2023-08-20T06:46:22;11.47;;;5.90;;
7917;SDS011;4004;42.624;23.386;2023-08-20T06:48:50;12.30;;;6.20;;
7917;SDS011;4004;42.624;23.386;2023-08-20T06:51:19;7.40;;;5.20;;
7917;SDS011;4004;42.624;23.386;2023-08-20T06:53:46;7.93;;;5.07;;
7917;SDS011;4004;42.624;23.386;2023-08-20T06:56:15;9.63;;;5.17;;
7917;SDS011;4004;42.624;23.386;2023-08-20T06:58:42;6.93;;;4.90;;
7917;SDS011;4004;42.624;23.386;2023-08-20T07:01:09;6.20;;;4.90;;
7917;SDS011;4004;42.624;23.386;2023-08-20T07:03:38;11.87;;;5.03;;
7917;SDS011;4004;42.624;23.386;2023-08-20T07:06:06;5.33;;;4.57;;
7917;SDS011;4004;42.624;23.386;2023-08-20T07:08:34;10.50;;;5.00;;
7917;SDS011;4004;42.624;23.386;2023-08-20T07:11:01;5.93;;;5.00;;
7917;SDS011;4004;42.624;23.386;2023-08-20T07:13:30;9.27;;;4.83;;
7917;SDS011;4004;42.624;23.386;2023-08-20T07:15:56;6.73;;;4.80;;
7917;SDS011;4004;42.624;23.386;2023-08-20T07:18:23;10.17;;;5.03;;
7917;SDS011;4004;42.624;23.386;2023-08-20T07:20:50;7.10;;;4.73;;
7917;SDS011;4004;42.624;23.386;2023-08-20T07:23:17;4.77;;;4.27;;
7917;SDS011;4004;42.624;23.386;2023-08-20T07:25:44;5.20;;;4.70;;
7917;SDS011;4004;42.624;23.386;2023-08-20T07:28:12;9.73;;;4.80;;
7917;SDS011;4004;42.624;23.386;2023-08-20T07:30:40;7.83;;;4.93;;
7917;SDS011;4004;42.624;23.386;2023-08-20T07:33:07;4.60;;;4.13;;
7917;SDS011;4004;42.624;23.386;2023-08-20T07:35:34;7.83;;;4.40;;
7917;SDS011;4004;42.624;23.386;2023-08-20T07:38:01;5.83;;;4.57;;
7917;SDS011;4004;42.624;23.386;2023-08-20T07:40:28;6.27;;;4.10;;
7917;SDS011;4004;42.624;23.386;2023-08-20T07:42:54;4.83;;;4.33;;
7917;SDS011;4004;42.624;23.386;2023-08-20T07:45:22;8.27;;;5.20;;
7917;SDS011;4004;42.624;23.386;2023-08-20T07:47:50;7.93;;;4.63;;
7917;SDS011;4004;42.624;23.386;2023-08-20T07:50:17;6.77;;;4.63;;
7917;SDS011;4004;42.624;23.386;2023-08-20T07:52:44;8.17;;;4.37;;
7917;SDS011;4004;42.624;23.386;2023-08-20T07:55:11;5.37;;;4.50;;
7917;SDS011;4004;42.624;23.386;2023-08-20T07:57:37;5.63;;;4.00;;
7917;SDS011;4004;42.624;23.386;2023-08-20T08:00:05;5.13;;;4.23;;
7917;SDS011;4004;42.624;23.386;2023-08-20T08:02:32;5.60;;;4.20;;
7917;SDS011;4004;42.624;23.386;2023-08-20T08:05:01;4.73;;;4.00;;
7917;SDS011;4004;42.624;23.386;2023-08-20T08:07:28;5.20;;;4.17;;
7917;SDS011;4004;42.624;23.386;2023-08-20T08:09:55;5.07;;;4.17;;
7917;SDS011;4004;42.624;23.386;2023-08-20T08:12:21;5.40;;;4.30;;
7917;SDS011;4004;42.624;23.386;2023-08-20T08:14:48;5.87;;;4.30;;
7917;SDS011;4004;42.624;23.386;2023-08-20T08:17:15;5.20;;;4.70;;
7917;SDS011;4004;42.624;23.386;2023-08-20T08:19:42;4.67;;;3.90;;
7917;SDS011;4004;42.624;23.386;2023-08-20T08:22:10;4.07;;;3.77;;
7917;SDS011;4004;42.624;23.386;2023-08-20T08:24:37;6.37;;;3.93;;
7917;SDS011;4004;42.624;23.386;2023-08-20T08:27:03;4.27;;;3.87;;
7917;SDS011;4004;42.624;23.386;2023-08-20T08:29:30;7.27;;;4.07;;
7917;SDS011;4004;42.624;23.386;2023-08-20T08:31:57;8.40;;;5.13;;
7917;SDS011;4004;42.624;23.386;2023-08-20T08:34:24;8.83;;;4.00;;
7917;SDS011;4004;42.624;23.386;2023-08-20T08:36:51;6.07;;;3.70;;
7917;SDS011;4004;42.624;23.386;2023-08-20T08:39:19;3.77;;;3.40;;
7917;SDS011;4004;42.624;23.386;2023-08-20T08:41:46;4.47;;;3.63;;
7917;SDS011;4004;42.624;23.386;2023-08-20T08:44:17;6.40;;;4.00;;
7917;SDS011;4004;42.624;23.386;2023-08-20T08:46:44;7.27;;;3.30;;
7917;SDS011;4004;42.624;23.386;2023-08-20T08:49:15;3.70;;;3.30;;
7917;SDS011;4004;42.624;23.386;2023-08-20T08:51:42;8.33;;;3.90;;
7917;SDS011;4004;42.624;23.386;2023-08-20T08:54:10;8.20;;;3.47;;
7917;SDS011;4004;42.624;23.386;2023-08-20T08:56:39;6.77;;;3.50;;
7917;SDS011;4004;42.624;23.386;2023-08-20T08:59:06;4.73;;;3.63;;
7917;SDS011;4004;42.624;23.386;2023-08-20T09:04:04;7.00;;;3.80;;
7917;SDS011;4004;42.624;23.386;2023-08-20T09:06:33;5.77;;;3.50;;
7917;SDS011;4004;42.624;23.386;2023-08-20T09:09:11;9.30;;;3.90;;
7917;SDS011;4004;42.624;23.386;2023-08-20T09:11:38;4.70;;;3.43;;
7917;SDS011;4004;42.624;23.386;2023-08-20T09:14:06;5.07;;;3.70;;
7917;SDS011;4004;42.624;23.386;2023-08-20T09:16:33;7.07;;;3.87;;
7917;SDS011;4004;42.624;23.386;2023-08-20T09:19:00;6.77;;;3.50;;
7917;SDS011;4004;42.624;23.386;2023-08-20T09:21:27;4.97;;;3.80;;
7917;SDS011;4004;42.624;23.386;2023-08-20T09:23:55;6.17;;;3.23;;
7917;SDS011;4004;42.624;23.386;2023-08-20T09:26:22;3.93;;;3.53;;
7917;SDS011;4004;42.624;23.386;2023-08-20T09:28:50;5.80;;;2.97;;
7917;SDS011;4004;42.624;23.386;2023-08-20T09:31:17;5.67;;;2.87;;
7917;SDS011;4004;42.624;23.386;2023-08-20T09:33:50;4.23;;;2.80;;
7917;SDS011;4004;42.624;23.386;2023-08-20T09:36:17;5.57;;;3.20;;
7917;SDS011;4004;42.624;23.386;2023-08-20T09:38:44;4.50;;;3.07;;
7917;SDS011;4004;42.624;23.386;2023-08-20T09:41:11;4.73;;;2.87;;
7917;SDS011;4004;42.624;23.386;2023-08-20T09:43:38;3.00;;;2.70;;
7917;SDS011;4004;42.624;23.386;2023-08-20T09:46:07;5.20;;;2.60;;
7917;SDS011;4004;42.624;23.386;2023-08-20T09:48:36;3.33;;;2.80;;
7917;SDS011;4004;42.624;23.386;2023-08-20T09:51:09;2.90;;;2.70;;
7917;SDS011;4004;42.624;23.386;2023-08-20T09:53:39;7.80;;;3.03;;
7917;SDS011;4004;42.624;23.386;2023-08-20T09:56:14;4.67;;;2.83;;
7917;SDS011;4004;42.624;23.386;2023-08-20T09:58:47;5.47;;;2.90;;
7917;SDS011;4004;42.624;23.386;2023-08-20T10:01:16;4.93;;;3.03;;
7917;SDS011;4004;42.624;23.386;2023-08-20T10:03:43;3.60;;;2.90;;
7917;SDS011;4004;42.624;23.386;2023-08-20T10:06:10;4.93;;;2.90;;
7917;SDS011;4004;42.624;23.386;2023-08-20T10:08:38;3.83;;;2.87;;
7917;SDS011;4004;42.624;23.386;2023-08-20T10:11:04;3.67;;;2.63;;
7917;SDS011;4004;42.624;23.386;2023-08-20T10:13:31;5.60;;;2.80;;
7917;SDS011;4004;42.624;23.386;2023-08-20T10:15:58;3.80;;;2.87;;
7917;SDS011;4004;42.624;23.386;2023-08-20T10:18:27;4.23;;;3.20;;
7917;SDS011;4004;42.624;23.386;2023-08-20T10:20:53;4.50;;;3.10;;
7917;SDS011;4004;42.624;23.386;2023-08-20T10:23:24;5.53;;;3.27;;
7917;SDS011;4004;42.624;23.386;2023-08-20T10:25:51;3.03;;;2.83;;
7917;SDS011;4004;42.624;23.386;2023-08-20T10:28:20;4.47;;;3.20;;
7917;SDS011;4004;42.624;23.386;2023-08-20T10:31:02;4.00;;;3.60;;
7917;SDS011;4004;42.624;23.386;2023-08-20T10:33:33;4.20;;;2.90;;
7917;SDS011;4004;42.624;23.386;2023-08-20T10:36:13;4.93;;;3.07;;
7917;SDS011;4004;42.624;23.386;2023-08-20T10:38:41;6.43;;;3.40;;
7917;SDS011;4004;42.624;23.386;2023-08-20T10:41:10;3.73;;;3.30;;
7917;SDS011;4004;42.624;23.386;2023-08-20T10:43:38;4.13;;;2.87;;
7917;SDS011;4004;42.624;23.386;2023-08-20T10:46:13;4.00;;;3.10;;
7917;SDS011;4004;42.624;23.386;2023-08-20T10:48:43;4.33;;;3.00;;
7917;SDS011;4004;42.624;23.386;2023-08-20T10:51:13;3.93;;;3.00;;
7917;SDS011;4004;42.624;23.386;2023-08-20T10:53:41;5.10;;;3.77;;
7917;SDS011;4004;42.624;23.386;2023-08-20T10:56:12;5.17;;;3.47;;
7917;SDS011;4004;42.624;23.386;2023-08-20T10:58:41;4.27;;;3.17;;
7917;SDS011;4004;42.624;23.386;2023-08-20T11:01:12;3.07;;;2.77;;
7917;SDS011;4004;42.624;23.386;2023-08-20T11:03:40;6.87;;;3.27;;
7917;SDS011;4004;42.624;23.386;2023-08-20T11:06:09;5.87;;;3.13;;
7917;SDS011;4004;42.624;23.386;2023-08-20T11:08:36;4.20;;;3.30;;
7917;SDS011;4004;42.624;23.386;2023-08-20T11:11:03;5.70;;;3.00;;
7917;SDS011;4004;42.624;23.386;2023-08-20T11:13:29;3.80;;;3.20;;
7917;SDS011;4004;42.624;23.386;2023-08-20T11:15:58;3.53;;;3.23;;
7917;SDS011;4004;42.624;23.386;2023-08-20T11:18:25;4.43;;;3.33;;
7917;SDS011;4004;42.624;23.386;2023-08-20T11:20:52;4.13;;;3.07;;
7917;SDS011;4004;42.624;23.386;2023-08-20T11:23:21;8.43;;;3.13;;
7917;SDS011;4004;42.624;23.386;2023-08-20T11:25:48;8.37;;;3.30;;
7917;SDS011;4004;42.624;23.386;2023-08-20T11:28:15;5.70;;;3.00;;
7917;SDS011;4004;42.624;23.386;2023-08-20T11:30:42;6.37;;;3.17;;
7917;SDS011;4004;42.624;23.386;2023-08-20T11:33:09;3.30;;;2.97;;
7917;SDS011;4004;42.624;23.386;2023-08-20T11:35:36;3.80;;;3.00;;
7917;SDS011;4004;42.624;23.386;2023-08-20T11:38:03;5.60;;;3.10;;
7917;SDS011;4004;42.624;23.386;2023-08-20T11:40:31;3.03;;;2.70;;
7917;SDS011;4004;42.624;23.386;2023-08-20T11:42:58;8.47;;;3.30;;
7917;SDS011;4004;42.624;23.386;2023-08-20T11:45:25;4.70;;;3.17;;
7917;SDS011;4004;42.624;23.386;2023-08-20T11:47:55;6.00;;;3.23;;
7917;SDS011;4004;42.624;23.386;2023-08-20T11:50:23;3.40;;;3.10;;
7917;SDS011;4004;42.624;23.386;2023-08-20T11:52:51;6.07;;;3.00;;
7917;SDS011;4004;42.624;23.386;2023-08-20T11:55:21;4.97;;;3.53;;
7917;SDS011;4004;42.624;23.386;2023-08-20T11:57:51;5.50;;;3.30;;
7917;SDS011;4004;42.624;23.386;2023-08-20T12:00:24;3.67;;;3.37;;
7917;SDS011;4004;42.624;23.386;2023-08-20T12:02:53;4.50;;;2.90;;
7917;SDS011;4004;42.624;23.386;2023-08-20T12:05:21;3.77;;;3.17;;
7917;SDS011;4004;42.624;23.386;2023-08-20T12:07:55;7.20;;;3.20;;
7917;SDS011;4004;42.624;23.386;2023-08-20T12:10:23;3.93;;;3.27;;
7917;SDS011;4004;42.624;23.386;2023-08-20T12:12:52;4.20;;;3.23;;
7917;SDS011;4004;42.624;23.386;2023-08-20T12:15:20;4.50;;;3.30;;
7917;SDS011;4004;42.624;23.386;2023-08-20T12:17:57;4.47;;;3.40;;
7917;SDS011;4004;42.624;23.386;2023-08-20T12:20:26;4.90;;;3.40;;
7917;SDS011;4004;42.624;23.386;2023-08-20T12:22:54;5.47;;;3.00;;
7917;SDS011;4004;42.624;23.386;2023-08-20T12:25:21;3.87;;;3.47;;
7917;SDS011;4004;42.624;23.386;2023-08-20T12:27:47;3.70;;;3.40;;
7917;SDS011;4004;42.624;23.386;2023-08-20T12:30:16;3.67;;;3.00;;
7917;SDS011;4004;42.624;23.386;2023-08-20T12:32:43;5.87;;;2.80;;
7917;SDS011;4004;42.624;23.386;2023-08-20T12:35:10;4.90;;;3.57;;
7917;SDS011;4004;42.624;23.386;2023-08-20T12:37:37;4.03;;;3.30;;
7917;SDS011;4004;42.624;23.386;2023-08-20T12:40:04;5.40;;;3.67;;
7917;SDS011;4004;42.624;23.386;2023-08-20T12:42:35;5.00;;;3.53;;
7917;SDS011;4004;42.624;23.386;2023-08-20T12:45:03;5.17;;;3.17;;
7917;SDS011;4004;42.624;23.386;2023-08-20T12:47:32;5.57;;;3.50;;
7917;SDS011;4004;42.624;23.386;2023-08-20T12:49:59;4.03;;;3.50;;
7917;SDS011;4004;42.624;23.386;2023-08-20T12:52:26;3.97;;;3.27;;
7917;SDS011;4004;42.624;23.386;2023-08-20T12:54:53;4.30;;;3.17;;
7917;SDS011;4004;42.624;23.386;2023-08-20T12:57:20;4.53;;;3.40;;
7917;SDS011;4004;42.624;23.386;2023-08-20T12:59:46;4.00;;;3.37;;
7917;SDS011;4004;42.624;23.386;2023-08-20T13:02:13;5.90;;;3.17;;
7917;SDS011;4004;42.624;23.386;2023-08-20T13:04:42;4.63;;;3.10;;
7917;SDS011;4004;42.624;23.386;2023-08-20T13:07:09;7.97;;;3.40;;
7917;SDS011;4004;42.624;23.386;2023-08-20T13:09:37;6.37;;;2.90;;
7917;SDS011;4004;42.624;23.386;2023-08-20T13:12:04;3.87;;;2.90;;
7917;SDS011;4004;42.624;23.386;2023-08-20T13:14:34;7.07;;;3.27;;
7917;SDS011;4004;42.624;23.386;2023-08-20T13:17:01;4.67;;;3.30;;
7917;SDS011;4004;42.624;23.386;2023-08-20T13:19:29;5.47;;;3.23;;
7917;SDS011;4004;42.624;23.386;2023-08-20T13:21:57;6.27;;;3.30;;
7917;SDS011;4004;42.624;23.386;2023-08-20T13:24:24;5.30;;;3.80;;
7917;SDS011;4004;42.624;23.386;2023-08-20T13:26:51;4.17;;;2.70;;
7917;SDS011;4004;42.624;23.386;2023-08-20T13:29:18;7.87;;;3.20;;
7917;SDS011;4004;42.624;23.386;2023-08-20T13:31:44;5.23;;;3.43;;
7917;SDS011;4004;42.624;23.386;2023-08-20T13:34:11;5.03;;;3.30;;
7917;SDS011;4004;42.624;23.386;2023-08-20T13:36:38;4.20;;;3.13;;
7917;SDS011;4004;42.624;23.386;2023-08-20T13:39:06;4.23;;;3.27;;
7917;SDS011;4004;42.624;23.386;2023-08-20T13:41:33;7.47;;;3.17;;
7917;SDS011;4004;42.624;23.386;2023-08-20T13:44:00;3.47;;;3.17;;
7917;SDS011;4004;42.624;23.386;2023-08-20T13:46:26;6.33;;;3.00;;
7917;SDS011;4004;42.624;23.386;2023-08-20T13:48:54;5.10;;;3.23;;
7917;SDS011;4004;42.624;23.386;2023-08-20T13:51:21;3.87;;;2.93;;
7917;SDS011;4004;42.624;23.386;2023-08-20T13:53:48;3.67;;;3.37;;
7917;SDS011;4004;42.624;23.386;2023-08-20T13:56:16;4.40;;;3.20;;
7917;SDS011;4004;42.624;23.386;2023-08-20T13:58:43;4.47;;;2.90;;
7917;SDS011;4004;42.624;23.386;2023-08-20T14:01:09;5.63;;;3.40;;
7917;SDS011;4004;42.624;23.386;2023-08-20T14:03:36;6.00;;;3.30;;
7917;SDS011;4004;42.624;23.386;2023-08-20T14:06:03;8.57;;;3.50;;
7917;SDS011;4004;42.624;23.386;2023-08-20T14:08:30;4.63;;;3.00;;
7917;SDS011;4004;42.624;23.386;2023-08-20T14:10:57;4.53;;;3.10;;
7917;SDS011;4004;42.624;23.386;2023-08-20T14:13:25;10.33;;;3.10;;
7917;SDS011;4004;42.624;23.386;2023-08-20T14:15:52;7.47;;;3.13;;
7917;SDS011;4004;42.624;23.386;2023-08-20T14:18:19;3.87;;;3.00;;
7917;SDS011;4004;42.624;23.386;2023-08-20T14:20:46;6.63;;;3.13;;
7917;SDS011;4004;42.624;23.386;2023-08-20T14:23:12;5.00;;;3.10;;
7917;SDS011;4004;42.624;23.386;2023-08-20T14:25:40;3.30;;;3.00;;
7917;SDS011;4004;42.624;23.386;2023-08-20T14:28:07;3.77;;;2.80;;
7917;SDS011;4004;42.624;23.386;2023-08-20T14:30:37;3.83;;;2.93;;
7917;SDS011;4004;42.624;23.386;2023-08-20T14:33:04;3.47;;;2.73;;
7917;SDS011;4004;42.624;23.386;2023-08-20T14:35:31;3.17;;;2.83;;
7917;SDS011;4004;42.624;23.386;2023-08-20T14:37:58;4.37;;;3.10;;
7917;SDS011;4004;42.624;23.386;2023-08-20T14:40:25;5.27;;;3.03;;
7917;SDS011;4004;42.624;23.386;2023-08-20T14:42:52;5.90;;;2.60;;
7917;SDS011;4004;42.624;23.386;2023-08-20T14:45:19;3.63;;;2.67;;
7917;SDS011;4004;42.624;23.386;2023-08-20T14:47:47;3.83;;;2.80;;
7917;SDS011;4004;42.624;23.386;2023-08-20T14:50:14;5.80;;;3.17;;
7917;SDS011;4004;42.624;23.386;2023-08-20T14:52:40;3.93;;;2.63;;
7917;SDS011;4004;42.624;23.386;2023-08-20T14:55:07;5.13;;;3.03;;
7917;SDS011;4004;42.624;23.386;2023-08-20T14:57:35;4.27;;;2.60;;
7917;SDS011;4004;42.624;23.386;2023-08-20T15:00:03;8.43;;;3.13;;
7917;SDS011;4004;42.624;23.386;2023-08-20T15:02:33;7.17;;;3.20;;
7917;SDS011;4004;42.624;23.386;2023-08-20T15:05:01;3.33;;;2.90;;
7917;SDS011;4004;42.624;23.386;2023-08-20T15:07:28;3.37;;;2.90;;